Latest Weather Observations for Cabramurra

IDN60801

Issued at 11:35 pm EST Saturday 20 September 2014 (issued every 30 minutes, with the page automatically refreshed every 10 minutes)

About weather observations | Map of weather stations | Latest weather observations for NSW | Other Formats
Station Details ID: 072161 Name: CABRAMURRA SMHEA AWS Lat: -35.94 Lon: 148.38 Height: 1482.4 m
Data from the previous 72 hours. | See also: Recent months at Cabramurra
Date/Time
EST
Temp
°C
App
Temp
°C
Dew
Point
Rel
Hum
%
Delta-T
°C
Wind Press
QNH
hPa
Press
MSL
hPa
Rain
since 9 am
mm
Dir
 
Spd
km/h
Gust
km/h
Spd
kts
Gust
kts
20/11:30pm 2.3 -4.1 0.8 90 0.6 E 24 35 13 19 - - 0.0
20/11:00pm 2.6 -3.1 0.8 88 0.8 E 20 28 11 15 - - 0.0
20/10:30pm 2.7 -3.3 0.8 87 0.8 E 22 30 12 16 - - 0.0
20/10:00pm 2.8 -3.6 0.9 87 0.8 E 24 32 13 17 - - 0.0
20/09:30pm 3.0 -3.8 0.6 84 1.0 E 26 35 14 19 - - 0.0
20/09:00pm 3.5 -4.1 0.6 81 1.2 E 30 41 16 22 - - 0.0
20/08:30pm 3.8 -3.5 0.3 78 1.5 E 28 35 15 19 - - 0.0
20/08:00pm 4.2 -3.0 0.5 77 1.6 E 28 35 15 19 - - 0.0
20/07:30pm 4.6 -3.0 0.6 75 1.7 E 30 39 16 21 - - 0.0
20/07:00pm 5.1 -2.1 0.5 72 2.0 ESE 28 35 15 19 - - 0.0
20/06:30pm 5.8 -0.3 0.4 68 2.3 E 22 30 12 16 - - 0.0
20/06:00pm 6.6 3.7 -7.7 35 5.1 CALM 0 0 0 0 - - 0.0
20/05:30pm 8.2 4.2 -7.5 32 5.7 W 6 9 3 5 - - 0.0
20/05:00pm 8.9 4.3 -7.7 30 6.1 WSW 9 17 5 9 - - 0.0
20/04:30pm 9.1 4.1 -8.4 28 6.3 WNW 11 17 6 9 - - 0.0
20/04:00pm 9.4 3.7 -7.7 29 6.3 WNW 15 22 8 12 - - 0.0
20/03:30pm 9.5 3.8 -7.2 30 6.2 W 15 22 8 12 - - 0.0
20/03:00pm 9.7 3.7 -6.6 31 6.2 W 17 24 9 13 - - 0.0
20/02:30pm 9.7 4.2 -5.4 34 5.9 W 15 24 8 13 - - 0.0
20/02:00pm 9.3 3.4 -5.4 35 5.7 WNW 17 26 9 14 - - 0.0
20/01:30pm 9.2 3.9 -3.3 41 5.1 W 15 24 8 13 - - 0.0
20/01:00pm 9.8 4.2 -3.1 40 5.3 WNW 17 28 9 15 - - 0.0
20/12:30pm 9.9 4.5 -4.8 35 5.8 W 15 20 8 11 - - 0.0
20/12:00pm 8.7 3.4 -3.2 43 4.8 WNW 15 20 8 11 - - 0.0
20/11:30am 8.3 3.4 -3.2 44 4.6 W 13 19 7 10 - - 0.0
20/11:00am 8.4 3.5 -3.1 44 4.6 NW 13 19 7 10 - - 0.0
20/10:30am 7.7 3.6 -2.9 47 4.3 NW 9 15 5 8 - - 0.0
20/10:00am 7.1 2.9 -8.1 33 5.4 W 7 11 4 6 - - 0.0
20/09:30am 6.5 1.8 -9.4 31 5.4 SSW 9 13 5 7 - - 0.0
20/09:00am 5.8 1.7 -6.7 40 4.5 SW 7 9 4 5 - - 0.0
20/08:30am 4.8 0.4 -10.1 33 5.1 SW 7 9 4 5 - - 0.0
20/08:00am 4.4 1.3 -10.8 32 5.1 CALM 0 0 0 0 - - 0.0
20/07:30am 3.7 -0.2 -11.1 33 4.9 S 4 7 2 4 - - 0.0
20/07:00am 3.3 -1.9 -11.4 33 4.7 SSE 11 15 6 8 - - 0.0
20/06:30am 2.6 -2.5 -9.6 40 4.1 SSE 11 15 6 8 - - 0.0
20/06:00am 1.9 -3.4 -7.7 49 3.3 SSE 13 17 7 9 - - 0.0
20/05:30am 1.6 -2.7 -1.5 80 1.2 S 11 13 6 7 - - 0.0
20/05:00am 1.7 -2.6 -1.4 80 1.2 SSW 11 13 6 7 - - 0.0
20/04:30am 1.8 -2.9 -2.0 76 1.5 S 13 17 7 9 - - 0.0
20/04:00am 1.9 -1.9 -0.5 84 1.0 S 9 11 5 6 - - 0.0
20/03:30am 2.1 -1.3 -0.6 82 1.1 S 7 9 4 5 - - 0.0
20/03:00am 2.4 -1.0 -0.4 82 1.1 SSE 7 9 4 5 - - 0.0
20/02:30am 2.2 -2.0 -0.7 81 1.2 S 11 13 6 7 - - 0.0
20/02:00am 2.4 -1.0 -0.4 82 1.1 S 7 9 4 5 - - 0.0
20/01:30am 2.4 -1.3 0.0 84 1.0 S 9 9 5 5 - - 0.0
20/01:00am 2.1 -1.6 -0.2 85 0.9 SSE 9 13 5 7 - - 0.0
20/12:30am 1.7 -2.5 -0.9 83 1.0 S 11 13 6 7 - - 0.0
20/12:00am 2.2 -1.6 -1.1 79 1.3 S 9 13 5 7 - - 0.0
 
Date/Time
EST
Temp
°C
App
Temp
°C
Dew
Point
Rel
Hum
%
Delta-T
°C
Wind Press
QNH
hPa
Press
MSL
hPa
Rain
since 9 am
mm
Dir
 
Spd
km/h
Gust
km/h
Spd
kts
Gust
kts
19/11:30pm 2.0 -1.9 -1.8 76 1.5 SW 9 11 5 6 - - 0.0
19/11:00pm 2.4 -1.1 -1.2 77 1.4 SSE 7 9 4 5 - - 0.0
19/10:30pm 2.3 -1.6 -1.7 75 1.6 S 9 11 5 6 - - 0.0
19/10:00pm 2.4 -1.0 -0.9 79 1.3 S 7 11 4 6 - - 0.0
19/09:30pm 2.4 -1.9 -1.7 74 1.6 SW 11 15 6 8 - - 0.0
19/09:00pm 2.1 -1.8 -1.5 77 1.4 SSW 9 11 5 6 - - 0.0
19/08:30pm 2.5 -1.3 -0.4 81 1.2 SW 9 11 5 6 - - 0.0
19/08:00pm 2.8 -1.0 -1.0 76 1.5 WSW 9 15 5 8 - - 0.0
19/07:30pm 3.1 -1.6 -2.0 69 2.0 S 13 17 7 9 - - 0.0
19/07:00pm 3.1 -1.7 -2.8 65 2.3 SW 13 17 7 9 - - 0.0
19/06:30pm 3.3 -0.6 -1.8 69 2.0 SSW 9 13 5 7 - - 0.0
19/06:00pm 4.1 -0.6 -1.7 66 2.3 SW 13 17 7 9 - - 0.0
19/05:30pm 5.3 -0.1 -1.6 61 2.8 WSW 17 26 9 14 - - 0.0
19/05:00pm 6.6 1.3 -0.4 61 3.0 W 17 26 9 14 - - 0.0
19/04:30pm 7.0 2.2 0.0 61 3.0 W 15 20 8 11 - - 0.0
19/04:00pm 6.8 0.9 -1.1 57 3.3 WSW 20 24 11 13 - - 0.0
19/03:30pm 7.1 1.8 -0.8 57 3.3 WNW 17 24 9 13 - - 0.0
19/03:00pm 7.0 1.1 -1.9 53 3.6 W 19 28 10 15 - - 0.0
19/02:30pm 7.0 0.9 -3.5 47 4.1 W 19 26 10 14 - - 0.0
19/02:00pm 7.4 1.3 -4.3 43 4.5 W 19 28 10 15 - - 0.0
19/01:30pm 7.0 0.6 -6.7 37 5.0 WNW 19 28 10 15 - - 0.0
19/01:00pm 7.0 0.8 -5.3 41 4.6 W 19 35 10 19 - - 0.0
19/12:30pm 6.8 0.2 -9.1 31 5.5 W 19 28 10 15 - - 0.0
19/12:00pm 6.4 0.3 -8.3 34 5.1 WNW 17 24 9 13 - - 0.0
19/11:30am 6.1 0.6 -5.2 44 4.2 WNW 15 24 8 13 - - 0.0
19/11:00am 5.9 1.4 -3.4 51 3.6 W 11 19 6 10 - - 0.0
19/10:30am 5.6 -0.1 -7.2 39 4.5 SW 15 20 8 11 - - 0.0
19/10:00am 4.3 -1.2 -10.1 34 4.9 SW 13 20 7 11 - - 0.0
19/09:30am 3.4 -2.4 -8.9 40 4.3 SW 15 20 8 11 - - 0.0
19/09:00am 2.8 -2.5 -6.8 49 3.5 S 13 19 7 10 - - 0.0
19/08:30am 1.9 -3.9 -9.0 44 3.6 SSW 15 20 8 11 - - 0.0
19/08:00am 1.4 -2.8 -9.8 43 3.6 S 6 13 3 7 - - 0.0
19/07:30am 0.7 -4.5 -10.1 44 3.4 SSW 11 15 6 8 - - 0.0
19/07:00am 0.0 -5.6 -10.5 45 3.2 S 13 15 7 8 - - 0.0
19/06:30am -0.2 -5.8 -11.5 42 3.3 S 13 17 7 9 - - 0.0
19/06:00am -0.3 -5.5 -11.0 44 3.2 SSW 11 15 6 8 - - 0.0
19/05:30am -0.7 -6.6 -9.3 52 2.7 S 15 17 8 9 - - 0.0
19/05:00am -0.8 -6.6 -8.5 56 2.4 S 15 20 8 11 - - 0.0
19/04:30am -0.4 -5.3 -6.8 62 2.1 SSE 11 17 6 9 - - 0.0
19/04:00am -0.8 -6.7 -5.4 71 1.6 S 17 20 9 11 - - 0.0
19/03:30am -0.6 -5.7 -5.4 70 1.6 S 13 19 7 10 - - 0.0
19/03:00am -0.9 -6.1 -5.9 69 1.7 S 13 17 7 9 - - 0.0
19/02:30am -0.6 -5.7 -5.4 70 1.6 S 13 17 7 9 - - 0.0
19/02:00am -0.9 -6.2 -3.7 81 1.0 S 15 19 8 10 - - 0.0
19/01:30am -0.9 -5.7 -2.3 90 0.5 S 13 20 7 11 - - 0.0
19/01:00am -1.0 -6.0 -1.1 99 0.0 S 15 17 8 9 - - 0.0
19/12:30am -0.6 -4.8 -0.7 99 0.0 S 11 17 6 9 - - 0.0
19/12:00am -0.4 -3.8 -0.5 99 0.0 S 7 13 4 7 - - 0.0
 
Date/Time
EST
Temp
°C
App
Temp
°C
Dew
Point
Rel
Hum
%
Delta-T
°C
Wind Press
QNH
hPa
Press
MSL
hPa
Rain
since 9 am
mm
Dir
 
Spd
km/h
Gust
km/h
Spd
kts
Gust
kts
18/11:30pm -0.6 -4.4 -0.7 99 0.0 SSW 9 17 5 9 - - 0.0
18/11:00pm 0.1 -3.6 0.0 99 0.0 S 9 15 5 8 - - 0.0
18/10:30pm 0.3 -4.9 0.2 99 0.0 SW 17 20 9 11 - - 0.0
18/10:00pm 0.2 -3.5 0.1 99 0.0 WSW 9 15 5 8 - - 0.0
18/09:30pm 0.1 -3.6 0.0 99 0.0 SW 9 13 5 7 - - 0.0
18/09:00pm 0.4 -3.2 0.3 99 0.0 W 9 17 5 9 - - 0.0
18/08:30pm 0.6 -3.4 0.5 99 0.0 WSW 11 17 6 9 - - 0.0
18/08:00pm 0.5 -4.0 -0.1 96 0.2 WSW 13 17 7 9 - - 0.0
18/07:30pm 0.6 -4.2 -0.1 95 0.3 WSW 15 22 8 12 - - 0.0
18/07:00pm 0.4 -4.1 -0.4 94 0.3 W 13 24 7 13 - - 0.0
18/06:30pm 0.8 -3.7 -0.6 90 0.6 W 13 17 7 9 - - 0.0
18/06:00pm 1.1 -2.4 -1.3 84 0.9 SSW 7 17 4 9 - - 0.0
18/05:30pm 1.6 -2.7 -1.6 79 1.2 WSW 11 19 6 10 - - 0.0
18/05:00pm 1.8 -2.2 -2.0 76 1.5 WSW 9 15 5 8 - - 0.0
18/04:30pm 3.9 -1.1 -1.1 70 2.0 W 15 24 8 13 - - 0.0
18/04:00pm 2.2 -2.0 -1.2 78 1.3 W 11 19 6 10 - - 0.0
18/03:30pm 2.0 -2.7 -2.0 75 1.5 WSW 13 20 7 11 - - 0.0
18/03:00pm 2.0 -3.0 -1.2 79 1.3 W 15 22 8 12 - - 0.0
18/02:30pm 3.5 -1.8 -0.5 75 1.6 W 17 26 9 14 - - 0.0
18/02:00pm 2.7 -2.3 -1.3 75 1.6 W 15 22 8 12 - - 0.0
18/01:30pm 1.9 -2.7 -1.0 81 1.2 WNW 13 26 7 14 - - 0.0
18/01:00pm 1.4 -3.1 -0.2 89 0.6 W 13 19 7 10 - - 0.0
18/12:30pm 1.2 -3.2 0.6 96 0.2 WNW 13 20 7 11 - - 0.0
18/12:00pm 0.5 -4.0 -0.2 95 0.3 W 13 20 7 11 - - 0.0
18/11:30am 1.6 -4.1 0.4 92 0.5 WNW 20 24 11 13 - - 0.0
18/11:00am 0.4 -4.5 -0.3 95 0.3 WSW 15 20 8 11 - - 0.0
18/10:30am 0.5 -4.7 0.2 98 0.1 WNW 17 24 9 13 - - 0.0
18/10:00am 0.1 -4.0 0.0 99 0.0 W 11 17 6 9 - - 0.0
18/09:30am 0.1 -4.7 0.0 99 0.0 WSW 15 24 8 13 - - 0.0
18/09:00am -0.9 -6.7 -1.6 95 0.2 SSW 19 28 10 15 - - 2.2
18/08:30am -1.7 -6.4 -1.8 99 0.0 SW 13 20 7 11 - - 2.2
18/08:00am -1.9 -6.6 -2.0 99 -0.1 SW 13 20 7 11 - - 2.2
18/07:30am -2.2 -7.0 -2.3 99 -0.1 SW 13 20 7 11 - - 2.2
18/07:00am -2.4 -7.6 -2.5 99 -0.1 SW 15 24 8 13 - - 2.2
18/06:30am -2.4 -7.6 -2.5 99 -0.1 SW 15 22 8 12 - - 2.2
18/06:00am -2.5 -8.4 -2.6 99 -0.1 SW 19 26 10 14 - - 2.2
18/05:30am -2.4 -8.0 -2.5 99 -0.1 SW 17 28 9 15 - - 2.2
18/05:00am -2.3 -8.2 -2.4 99 -0.1 SW 19 24 10 13 - - 2.2
18/04:30am -2.2 -8.1 -2.3 99 -0.1 SW 19 28 10 15 - - 2.2
18/04:00am -2.1 -8.0 -2.2 99 -0.1 SW 19 26 10 14 - - 2.2
18/03:30am -2.0 -6.7 -2.1 99 -0.1 W 13 20 7 11 - - 2.2
18/03:00am -2.0 -7.1 -2.1 99 -0.1 SW 15 26 8 14 - - 2.2
18/02:30am -1.9 -8.7 -2.0 99 -0.1 W 24 41 13 22 - - 2.2
18/02:00am -1.8 -9.4 -1.9 99 -0.1 WSW 28 43 15 23 - - 2.2
18/01:30am -1.5 -9.4 -1.6 99 0.0 WSW 30 44 16 24 - - 2.2
18/01:21am -1.5 -10.0 -1.6 99 0.0 W 33 52 18 28 - - 2.2
18/01:00am -1.4 -9.3 -1.5 99 0.0 W 30 46 16 25 - - 2.2
18/12:30am -1.4 -9.7 -1.5 99 0.0 W 32 52 17 28 - - 2.2
18/12:00am -0.7 -9.4 -0.8 99 0.0 W 35 59 19 32 - - 2.2
 
Date/Time
EST
Temp
°C
App
Temp
°C
Dew
Point
Rel
Hum
%
Delta-T
°C
Wind Press
QNH
hPa
Press
MSL
hPa
Rain
since 9 am
mm
Dir
 
Spd
km/h
Gust
km/h
Spd
kts
Gust
kts
17/11:39pm -0.5 -9.6 -0.6 99 0.0 W 37 57 20 31 - - 2.2

Other Formats:

Comma delimited format used in spreadsheet applications
http://www.bom.gov.au/fwo/IDN60801/IDN60801.95916.axf

JavaScript Object Notation format (JSON) in row-major order
http://www.bom.gov.au/fwo/IDN60801/IDN60801.95916.json